createdAt,value
2018-12-08T00:01:07.295Z,98569.59
2018-12-08T00:03:38.181Z,98569.34
2018-12-08T00:06:08.974Z,98571.71
2018-12-08T00:08:39.805Z,98566.95
2018-12-08T00:11:10.720Z,98560.30
2018-12-08T00:13:41.829Z,98559.45
2018-12-08T00:16:12.765Z,98552.66
2018-12-08T00:18:43.251Z,98548.99
2018-12-08T00:21:14.293Z,98539.97
2018-12-08T00:23:45.209Z,98532.97
2018-12-08T00:26:16.146Z,98527.76
2018-12-08T00:28:46.910Z,98530.39
2018-12-08T00:31:33.887Z,98527.16
2018-12-08T00:34:04.556Z,98517.64
2018-12-08T00:36:35.417Z,98523.37
2018-12-08T00:39:08.175Z,98523.50
2018-12-08T00:41:39.383Z,98524.67
2018-12-08T00:44:10.247Z,98516.83
2018-12-08T00:46:41.581Z,98524.20
2018-12-08T00:49:12.541Z,98505.06
2018-12-08T00:51:43.473Z,98483.64
2018-12-08T00:54:14.185Z,98460.94
2018-12-08T00:56:45.068Z,98458.06
2018-12-08T00:59:15.980Z,98460.08
2018-12-08T01:01:46.849Z,98456.75
2018-12-08T01:04:17.505Z,98446.84
2018-12-08T01:06:48.298Z,98454.30
2018-12-08T01:09:18.988Z,98442.39
2018-12-08T01:11:49.919Z,98422.77
2018-12-08T01:14:20.575Z,98409.44
2018-12-08T01:16:51.515Z,98397.82
2018-12-08T01:19:22.183Z,98388.20
2018-12-08T01:21:53.653Z,98366.69
2018-12-08T01:24:24.453Z,98372.42
2018-12-08T01:26:55.329Z,98379.33
2018-12-08T01:29:26.126Z,98367.55
2018-12-08T01:31:57.433Z,98360.01
2018-12-08T01:34:28.416Z,98354.27
2018-12-08T01:36:59.336Z,98339.27
2018-12-08T01:39:30.403Z,98328.99
2018-12-08T01:42:01.352Z,98327.12
2018-12-08T01:44:32.128Z,98323.97
2018-12-08T01:47:02.884Z,98315.73
2018-12-08T01:49:35.250Z,98300.10
2018-12-08T01:52:07.273Z,98305.34
2018-12-08T01:54:38.961Z,98300.08
2018-12-08T01:57:09.958Z,98288.08
2018-12-08T01:59:40.926Z,98277.23
2018-12-08T02:02:11.832Z,98295.80
2018-12-08T02:04:42.709Z,98282.25
2018-12-08T02:07:13.592Z,98305.05
2018-12-08T02:09:44.338Z,98318.02
2018-12-08T02:12:15.305Z,98314.22
2018-12-08T02:14:46.144Z,98313.14
2018-12-08T02:17:17.128Z,98318.85
2018-12-08T02:19:47.903Z,98320.86
2018-12-08T02:22:19.040Z,98310.69
2018-12-08T02:24:49.994Z,98316.48
2018-12-08T02:27:21.051Z,98315.78
2018-12-08T02:29:51.858Z,98309.63
2018-12-08T02:32:22.972Z,98310.52
2018-12-08T02:34:53.848Z,98304.97
2018-12-08T02:37:24.767Z,98303.13
2018-12-08T02:39:55.650Z,98315.23
2018-12-08T02:42:26.566Z,98308.45
2018-12-08T02:44:57.355Z,98305.27
2018-12-08T02:47:28.301Z,98300.51
2018-12-08T02:49:59.119Z,98292.28
2018-12-08T02:52:30.038Z,98288.55
2018-12-08T02:55:00.871Z,98296.02
2018-12-08T02:57:31.623Z,98293.31
2018-12-08T03:00:02.463Z,98292.81
2018-12-08T03:02:33.600Z,98279.23
2018-12-08T03:05:04.460Z,98290.80
2018-12-08T03:07:35.242Z,98290.58
2018-12-08T03:10:06.449Z,98288.33
2018-12-08T03:12:37.273Z,98275.72
2018-12-08T03:15:08.491Z,98283.48
2018-12-08T03:17:39.968Z,98265.75
2018-12-08T03:20:10.683Z,98270.45
2018-12-08T03:22:41.993Z,98278.02
2018-12-08T03:25:12.995Z,98278.84
2018-12-08T03:27:43.809Z,98278.40
2018-12-08T03:30:14.908Z,98270.59
2018-12-08T03:32:46.181Z,98259.25
2018-12-08T03:35:17.020Z,98248.72
2018-12-08T03:37:47.700Z,98245.16
2018-12-08T03:40:18.612Z,98237.02
2018-12-08T03:42:49.371Z,98226.20
2018-12-08T03:45:20.079Z,98215.14
2018-12-08T03:47:51.006Z,98217.90
2018-12-08T03:50:21.895Z,98236.09
2018-12-08T03:52:52.514Z,98230.05
2018-12-08T03:55:23.186Z,98229.74
2018-12-08T03:57:53.926Z,98233.03
2018-12-08T04:00:24.890Z,98237.69
2018-12-08T04:02:55.561Z,98240.36
2018-12-08T04:05:26.150Z,98232.06
2018-12-08T04:07:56.860Z,98248.84
2018-12-08T04:10:27.676Z,98242.30
2018-12-08T04:12:58.532Z,98237.64
2018-12-08T04:15:29.450Z,98245.47
2018-12-08T04:18:00.340Z,98236.33
2018-12-08T04:20:31.191Z,98228.05
2018-12-08T04:23:01.857Z,98224.77
2018-12-08T04:25:32.654Z,98214.58
2018-12-08T04:28:03.341Z,98206.67
2018-12-08T04:30:34.007Z,98200.18
2018-12-08T04:33:04.901Z,98215.95
2018-12-08T04:35:35.969Z,98200.48
2018-12-08T04:38:06.851Z,98191.73
2018-12-08T04:40:37.760Z,98186.55
2018-12-08T04:43:08.381Z,98184.01
2018-12-08T04:45:39.112Z,98181.17
2018-12-08T04:48:10.599Z,98185.77
2018-12-08T04:50:41.230Z,98184.80
2018-12-08T04:53:12.056Z,98168.88
2018-12-08T04:55:42.901Z,98165.72
2018-12-08T04:58:13.533Z,98163.71
2018-12-08T05:00:44.311Z,98167.91
2018-12-08T05:03:15.117Z,98169.54
2018-12-08T05:05:45.969Z,98168.70
2018-12-08T05:08:16.586Z,98160.45
2018-12-08T05:10:47.428Z,98163.47
2018-12-08T05:13:18.344Z,98168.38
2018-12-08T05:15:49.172Z,98172.30
2018-12-08T05:18:19.800Z,98179.92
2018-12-08T05:20:50.527Z,98176.14
2018-12-08T05:23:21.393Z,98174.50
2018-12-08T05:25:52.693Z,98167.13
2018-12-08T05:28:23.594Z,98167.97
2018-12-08T05:30:54.476Z,98164.16
2018-12-08T05:33:25.291Z,98166.36
2018-12-08T05:35:56.073Z,98168.81
2018-12-08T05:38:27.739Z,98171.80
2018-12-08T05:40:58.866Z,98183.23
2018-12-08T05:43:29.801Z,98189.38
2018-12-08T05:46:00.899Z,98184.73
2018-12-08T05:48:32.054Z,98182.02
2018-12-08T05:51:02.809Z,98187.37
2018-12-08T05:53:33.758Z,98184.58
2018-12-08T05:56:04.947Z,98186.06
2018-12-08T05:58:36.270Z,98193.55
2018-12-08T06:01:08.036Z,98188.70
2018-12-08T06:03:40.092Z,98197.88
2018-12-08T06:06:12.571Z,98195.77
2018-12-08T06:08:43.389Z,98209.98
2018-12-08T06:11:14.223Z,98206.45
2018-12-08T06:13:45.129Z,98219.02
2018-12-08T06:16:16.067Z,98220.23
2018-12-08T06:18:46.874Z,98227.02
2018-12-08T06:21:18.253Z,98236.59
2018-12-08T06:23:49.232Z,98233.88
2018-12-08T06:26:23.334Z,98223.97
2018-12-08T06:28:56.580Z,98226.58
2018-12-08T06:31:27.438Z,98219.52
2018-12-08T06:33:58.361Z,98223.98
2018-12-08T06:36:29.204Z,98221.17
2018-12-08T06:39:00.113Z,98231.45
2018-12-08T06:41:31.097Z,98235.74
2018-12-08T06:44:01.966Z,98238.87
2018-12-08T06:46:32.800Z,98234.06
2018-12-08T06:49:03.701Z,98242.80
2018-12-08T06:51:34.565Z,98244.12
2018-12-08T06:54:05.903Z,98247.19
2018-12-08T06:56:37.641Z,98231.59
2018-12-08T06:59:08.462Z,98223.92
2018-12-08T07:01:39.268Z,98214.33
2018-12-08T07:04:10.475Z,98207.95
2018-12-08T07:06:41.318Z,98205.39
2018-12-08T07:09:12.314Z,98205.77
2018-12-08T07:11:43.195Z,98207.81
2018-12-08T07:14:14.043Z,98205.48
2018-12-08T07:16:45.875Z,98210.98
2018-12-08T07:19:17.134Z,98217.26
2018-12-08T07:21:48.165Z,98214.88
2018-12-08T07:24:19.183Z,98218.36
2018-12-08T07:26:50.119Z,98221.48
2018-12-08T07:29:21.107Z,98223.67
2018-12-08T07:31:51.981Z,98223.16
2018-12-08T07:34:24.648Z,98227.16
2018-12-08T07:36:55.944Z,98218.47
2018-12-08T07:39:27.040Z,98231.03
2018-12-08T07:41:58.139Z,98232.13
2018-12-08T07:44:30.168Z,98226.69
2018-12-08T07:47:01.026Z,98241.14
2018-12-08T07:49:32.000Z,98253.34
2018-12-08T07:52:03.715Z,98245.09
2018-12-08T07:54:35.690Z,98246.26
2018-12-08T07:57:06.759Z,98248.71
2018-12-08T07:59:37.528Z,98250.93
2018-12-08T08:02:08.686Z,98285.71
2018-12-08T08:04:39.930Z,98283.90
2018-12-08T08:07:10.941Z,98300.22
2018-12-08T08:09:41.953Z,98322.13
2018-12-08T08:12:13.035Z,98316.08
2018-12-08T08:14:44.956Z,98317.30
2018-12-08T08:17:15.886Z,98311.17
2018-12-08T08:19:47.360Z,98320.09
2018-12-08T08:22:18.457Z,98319.13
2018-12-08T08:24:50.909Z,98307.86
2018-12-08T08:27:22.876Z,98311.46
2018-12-08T08:29:55.108Z,98320.70
2018-12-08T08:32:27.028Z,98334.91
2018-12-08T08:34:58.516Z,98333.37
2018-12-08T08:37:30.150Z,98324.58
2018-12-08T08:40:01.493Z,98331.02
2018-12-08T08:42:33.145Z,98331.92
2018-12-08T08:45:04.907Z,98334.81
2018-12-08T08:47:37.429Z,98334.33
2018-12-08T08:50:11.574Z,98346.53
2018-12-08T08:52:43.331Z,98363.95
2018-12-08T08:55:14.701Z,98378.98
2018-12-08T08:57:46.326Z,98386.77
2018-12-08T09:00:17.572Z,98391.39
2018-12-08T09:02:48.741Z,98394.44
2018-12-08T09:05:19.980Z,98399.58
2018-12-08T09:07:51.533Z,98395.63
2018-12-08T09:10:23.210Z,98404.08
2018-12-08T09:12:54.367Z,98405.88
2018-12-08T09:15:26.228Z,98412.16
2018-12-08T09:17:58.644Z,98414.72
2018-12-08T09:20:31.477Z,98414.93
2018-12-08T09:23:02.343Z,98412.49
2018-12-08T09:25:33.600Z,98414.75
2018-12-08T09:28:04.815Z,98415.37
2018-12-08T09:30:36.099Z,98415.63
2018-12-08T09:33:09.009Z,98426.84
2018-12-08T09:35:40.727Z,98426.02
2018-12-08T09:38:12.803Z,98422.09
2018-12-08T09:40:44.600Z,98425.49
2018-12-08T09:43:17.123Z,98434.20
2018-12-08T09:45:48.648Z,98429.11
2018-12-08T09:48:19.446Z,98430.67
2018-12-08T09:50:51.219Z,98430.56
2018-12-08T09:53:23.396Z,98424.98
2018-12-08T09:55:54.798Z,98428.44
2018-12-08T09:58:26.145Z,98418.91
2018-12-08T10:00:59.153Z,98420.28
2018-12-08T10:03:31.275Z,98422.92
2018-12-08T10:06:03.739Z,98408.80
2018-12-08T10:08:35.229Z,98419.41
2018-12-08T10:11:06.619Z,98409.95
2018-12-08T10:13:38.709Z,98409.81
2018-12-08T10:16:10.183Z,98405.14
2018-12-08T10:18:41.840Z,98397.75
2018-12-08T10:21:13.867Z,98409.06
2018-12-08T10:23:45.608Z,98409.48
2018-12-08T10:26:19.354Z,98401.63
2018-12-08T10:28:51.409Z,98399.91
2018-12-08T10:31:23.923Z,98402.55
2018-12-08T10:33:56.082Z,98405.84
2018-12-08T10:36:29.085Z,98408.34
2018-12-08T10:39:01.019Z,98409.59
2018-12-08T10:41:32.058Z,98417.61
2018-12-08T10:44:04.724Z,98413.54
2018-12-08T10:46:37.028Z,98405.06
2018-12-08T10:49:08.402Z,98401.67
2018-12-08T10:51:40.998Z,98406.02
2018-12-08T10:54:13.014Z,98408.19
2018-12-08T10:56:44.692Z,98401.70
2018-12-08T10:59:16.350Z,98411.91
2018-12-08T11:01:53.062Z,98414.99
2018-12-08T11:04:25.058Z,98413.88
2018-12-08T11:06:56.527Z,98400.41
2018-12-08T11:09:28.532Z,98402.38
2018-12-08T11:12:00.863Z,98397.75
2018-12-08T11:14:31.613Z,98402.69
2018-12-08T11:17:02.748Z,98408.36
2018-12-08T11:19:34.200Z,98413.95
2018-12-08T11:22:05.281Z,98417.97
2018-12-08T11:24:37.173Z,98416.45
2018-12-08T11:27:08.974Z,98419.08
2018-12-08T11:29:40.635Z,98433.05
2018-12-08T11:32:12.218Z,98435.48
2018-12-08T11:34:45.944Z,98439.64
2018-12-08T11:37:18.303Z,98435.88
2018-12-08T11:39:50.574Z,98445.42
2018-12-08T11:42:22.141Z,98451.14
2018-12-08T11:44:54.251Z,98453.80
2018-12-08T11:47:25.235Z,98455.48
2018-12-08T11:49:56.195Z,98453.34
2018-12-08T11:52:27.174Z,98460.50
2018-12-08T11:54:58.267Z,98452.64
2018-12-08T11:57:29.447Z,98463.94
2018-12-08T12:00:00.275Z,98470.45
2018-12-08T12:02:31.637Z,98467.43
2018-12-08T12:05:02.623Z,98479.31
2018-12-08T12:07:33.549Z,98479.84
2018-12-08T12:10:04.739Z,98473.48
2018-12-08T12:12:35.799Z,98474.67
2018-12-08T12:15:08.328Z,98476.31
2018-12-08T12:17:39.471Z,98482.44
2018-12-08T12:20:11.259Z,98478.27
2018-12-08T12:22:42.063Z,98477.12
2018-12-08T12:25:14.354Z,98469.33
2018-12-08T12:27:46.495Z,98470.03
2018-12-08T12:30:19.076Z,98472.98
2018-12-08T12:32:50.217Z,98463.27
2018-12-08T12:35:21.612Z,98472.38
2018-12-08T12:37:52.524Z,98480.91
2018-12-08T12:40:23.632Z,98473.12
2018-12-08T12:42:54.724Z,98475.90
2018-12-08T12:45:25.602Z,98472.41
2018-12-08T12:47:57.211Z,98478.26
2018-12-08T12:50:29.080Z,98473.94
2018-12-08T12:53:00.357Z,98477.34
2018-12-08T12:55:32.130Z,98486.20
2018-12-08T12:58:03.254Z,98486.86
2018-12-08T13:00:34.060Z,98493.02
2018-12-08T13:03:05.416Z,98480.78
2018-12-08T13:05:36.840Z,98479.75
2018-12-08T13:08:08.063Z,98487.16
2018-12-08T13:10:39.623Z,98483.06
2018-12-08T13:13:10.671Z,98484.73
2018-12-08T13:15:41.823Z,98490.90
2018-12-08T13:18:13.550Z,98488.40
2018-12-08T13:20:44.878Z,98486.86
2018-12-08T13:23:15.966Z,98493.02
2018-12-08T13:25:46.764Z,98498.73
2018-12-08T13:28:17.848Z,98495.83
2018-12-08T13:30:49.108Z,98502.48
2018-12-08T13:33:20.203Z,98504.79
2018-12-08T13:35:58.604Z,98502.77
2018-12-08T13:38:29.534Z,98500.19
2018-12-08T13:41:01.512Z,98498.66
2018-12-08T13:43:32.439Z,98504.45
2018-12-08T13:46:03.541Z,98508.05
2018-12-08T13:48:35.173Z,98509.27
2018-12-08T13:51:06.273Z,98509.29
2018-12-08T13:53:39.017Z,98510.58
2018-12-08T13:56:09.884Z,98504.47
2018-12-08T13:58:41.188Z,98508.02
2018-12-08T14:01:12.967Z,98507.04
2018-12-08T14:03:45.017Z,98518.92
2018-12-08T14:06:16.231Z,98515.70
2018-12-08T14:08:49.302Z,98514.87
2018-12-08T14:11:20.248Z,98517.52
2018-12-08T14:13:51.529Z,98521.50
2018-12-08T14:16:23.095Z,98532.68
2018-12-08T14:18:54.195Z,98527.00
2018-12-08T14:21:25.255Z,98536.47
2018-12-08T14:23:56.417Z,98540.61
2018-12-08T14:26:27.449Z,98529.20
2018-12-08T14:28:58.766Z,98527.63
2018-12-08T14:31:30.864Z,98539.89
2018-12-08T14:34:03.095Z,98537.46
2018-12-08T14:36:35.041Z,98543.63
2018-12-08T14:39:08.222Z,98548.63
2018-12-08T14:41:39.932Z,98553.58
2018-12-08T14:44:11.069Z,98564.48
2018-12-08T14:46:42.103Z,98574.08
2018-12-08T14:49:13.469Z,98584.14
2018-12-08T14:51:44.943Z,98589.59
2018-12-08T14:54:16.354Z,98597.83
2018-12-08T14:56:48.007Z,98598.06
2018-12-08T14:59:19.428Z,98594.72
2018-12-08T15:01:50.285Z,98594.41
2018-12-08T15:04:21.385Z,98602.77
2018-12-08T15:06:52.959Z,98604.17
2018-12-08T15:09:24.114Z,98595.84
2018-12-08T15:11:55.897Z,98608.72
2018-12-08T15:14:28.049Z,98602.05
2018-12-08T15:16:59.663Z,98609.73
2018-12-08T15:19:31.498Z,98611.10
2018-12-08T15:22:02.638Z,98621.97
2018-12-08T15:24:36.535Z,98620.93
2018-12-08T15:27:07.848Z,98625.03
2018-12-08T15:29:39.399Z,98633.06
2018-12-08T15:32:11.129Z,98633.36
2018-12-08T15:34:42.708Z,98632.31
2018-12-08T15:37:14.383Z,98632.39
2018-12-08T15:39:46.444Z,98628.98
2018-12-08T15:42:18.915Z,98638.02
2018-12-08T15:44:50.159Z,98640.53
2018-12-08T15:47:21.841Z,98644.92
2018-12-08T15:49:53.379Z,98647.89
2018-12-08T15:52:24.805Z,98645.13
2018-12-08T15:54:56.904Z,98645.08
2018-12-08T15:57:27.888Z,98649.50
2018-12-08T15:59:59.446Z,98653.34
2018-12-08T16:02:30.251Z,98659.20
2018-12-08T16:05:01.251Z,98660.76
2018-12-08T16:07:32.238Z,98656.20
2018-12-08T16:10:04.072Z,98656.23
2018-12-08T16:12:35.185Z,98665.70
2018-12-08T16:15:07.115Z,98673.20
2018-12-08T16:17:38.524Z,98681.63
2018-12-08T16:20:13.513Z,98676.29
2018-12-08T16:22:44.358Z,98682.08
2018-12-08T16:25:15.579Z,98691.30
2018-12-08T16:27:46.486Z,98691.55
2018-12-08T16:30:17.683Z,98682.45
2018-12-08T16:39:49.257Z,98681.50
2018-12-08T16:42:20.658Z,98688.06
2018-12-08T16:44:53.050Z,98691.80
2018-12-08T16:47:24.080Z,98700.83
2018-12-08T16:49:55.096Z,98705.78
2018-12-08T16:52:26.260Z,98708.97
2018-12-08T16:54:57.402Z,98708.95
2018-12-08T16:57:28.779Z,98717.42
2018-12-08T17:00:01.054Z,98714.62
2018-12-08T17:02:33.360Z,98720.75
2018-12-08T17:05:05.274Z,98728.72
2018-12-08T17:07:37.330Z,98729.73
2018-12-08T17:10:09.783Z,98739.30
2018-12-08T17:12:42.038Z,98738.81
2018-12-08T17:15:13.523Z,98742.59
2018-12-08T17:17:45.912Z,98744.11
2018-12-08T17:20:18.670Z,98746.31
2018-12-08T17:22:51.327Z,98749.25
2018-12-08T17:25:22.766Z,98754.35
2018-12-08T17:27:55.466Z,98752.44
2018-12-08T17:30:29.980Z,98750.98
2018-12-08T17:33:01.916Z,98756.15
2018-12-08T17:35:33.215Z,98756.70
2018-12-08T17:38:04.637Z,98755.88
2018-12-08T17:40:37.129Z,98762.36
2018-12-08T17:43:09.480Z,98764.72
2018-12-08T17:45:42.927Z,98770.39
2018-12-08T17:48:13.988Z,98771.36
2018-12-08T17:50:48.944Z,98767.66
2018-12-08T17:53:20.784Z,98776.55
2018-12-08T17:55:52.755Z,98776.42
2018-12-08T17:58:23.782Z,98774.92
2018-12-08T18:00:55.866Z,98774.79
2018-12-08T18:03:27.474Z,98781.77
2018-12-08T18:05:58.937Z,98784.00
2018-12-08T18:08:30.108Z,98785.09
2018-12-08T18:11:01.649Z,98791.66
2018-12-08T18:13:34.812Z,98793.55
2018-12-08T18:16:07.061Z,98797.44
2018-12-08T18:18:39.074Z,98795.38
2018-12-08T18:21:10.947Z,98798.23
2018-12-08T18:23:42.236Z,98796.08
2018-12-08T18:26:13.531Z,98794.46
2018-12-08T18:28:44.510Z,98799.56
2018-12-08T18:31:16.632Z,98796.09
2018-12-08T18:33:47.932Z,98802.70
2018-12-08T18:36:19.099Z,98794.83
2018-12-08T18:38:50.785Z,98805.47
2018-12-08T18:41:22.320Z,98808.34
2018-12-08T18:43:53.580Z,98816.31
2018-12-08T18:46:25.283Z,98820.34
2018-12-08T18:48:58.278Z,98820.23
2018-12-08T18:51:30.408Z,98826.00
2018-12-08T18:54:01.474Z,98830.73
2018-12-08T18:56:33.160Z,98831.27
2018-12-08T18:59:05.304Z,98821.88
2018-12-08T19:02:13.587Z,98818.38
2018-12-08T19:04:44.675Z,98820.69
2018-12-08T19:07:16.418Z,98822.34
2018-12-08T19:09:47.644Z,98817.06
2018-12-08T19:12:18.647Z,98824.35
2018-12-08T19:14:49.701Z,98828.75
2018-12-08T19:17:20.538Z,98840.95
2018-12-08T19:19:51.852Z,98842.50
2018-12-08T19:22:23.505Z,98845.09
2018-12-08T19:24:55.183Z,98851.19
2018-12-08T19:27:26.643Z,98851.63
2018-12-08T19:29:57.803Z,98855.32
2018-12-08T19:32:30.099Z,98862.04
2018-12-08T19:35:01.282Z,98859.45
2018-12-08T19:37:32.893Z,98864.73
2018-12-08T19:40:04.780Z,98871.41
2018-12-08T19:42:36.252Z,98859.38
2018-12-08T19:45:08.239Z,98863.20
2018-12-08T19:47:40.975Z,98866.08
2018-12-08T19:50:14.488Z,98857.59
2018-12-08T19:52:47.583Z,98854.95
2018-12-08T19:55:20.692Z,98857.09
2018-12-08T19:57:52.387Z,98857.25
2018-12-08T20:00:25.149Z,98860.59
2018-12-08T20:02:58.137Z,98855.36
2018-12-08T20:05:30.488Z,98849.81
2018-12-08T20:08:01.996Z,98850.11
2018-12-08T20:10:35.638Z,98857.59
2018-12-08T20:13:07.791Z,98848.23
2018-12-08T20:15:39.625Z,98857.08
2018-12-08T20:18:11.931Z,98857.18
2018-12-08T20:20:44.435Z,98864.39
2018-12-08T20:23:15.802Z,98868.59
2018-12-08T20:25:46.918Z,98866.69
2018-12-08T20:28:19.793Z,98868.85
2018-12-08T20:30:51.195Z,98875.48
2018-12-08T20:33:23.245Z,98880.98
2018-12-08T20:35:54.570Z,98888.48
2018-12-08T20:38:26.150Z,98899.19
2018-12-08T20:40:57.479Z,98897.50
2018-12-08T20:43:28.634Z,98886.01
2018-12-08T20:46:00.153Z,98885.72
2018-12-08T20:48:31.615Z,98885.76
2018-12-08T20:51:03.679Z,98885.12
2018-12-08T20:53:35.593Z,98884.22
2018-12-08T20:56:07.805Z,98888.48
2018-12-08T20:58:40.322Z,98896.48
2018-12-08T21:01:12.534Z,98894.77
2018-12-08T21:03:44.533Z,98901.09
2018-12-08T21:06:15.893Z,98904.42
2018-12-08T21:08:46.988Z,98907.37
2018-12-08T21:11:19.403Z,98902.60
2018-12-08T21:13:50.950Z,98902.77
2018-12-08T21:16:23.160Z,98898.48
2018-12-08T21:18:55.962Z,98893.45
2018-12-08T21:21:26.844Z,98895.03
2018-12-08T21:23:58.282Z,98888.30
2018-12-08T21:26:29.545Z,98896.58
2018-12-08T21:29:00.859Z,98890.63
2018-12-08T21:31:32.191Z,98890.84
2018-12-08T21:34:03.598Z,98892.70
2018-12-08T21:36:34.778Z,98896.64
2018-12-08T21:39:06.927Z,98891.09
2018-12-08T21:41:38.103Z,98893.13
2018-12-08T21:44:08.862Z,98892.78
2018-12-08T21:46:39.969Z,98888.30
2018-12-08T21:49:11.361Z,98881.69
2018-12-08T21:51:42.716Z,98873.36
2018-12-08T21:54:13.695Z,98876.50
2018-12-08T21:56:44.897Z,98876.16
2018-12-08T21:59:15.906Z,98882.14
2018-12-08T22:01:47.715Z,98880.65
2018-12-08T22:04:18.722Z,98894.88
2018-12-08T22:06:49.975Z,98884.11
2018-12-08T22:09:20.986Z,98888.28
2018-12-08T22:11:52.001Z,98891.66
2018-12-08T22:14:23.118Z,98883.64
2018-12-08T22:16:54.191Z,98889.40
2018-12-08T22:19:26.295Z,98892.04
2018-12-08T22:21:57.183Z,98890.47
2018-12-08T22:24:29.299Z,98887.48
2018-12-08T22:27:00.055Z,98885.88
2018-12-08T22:29:30.913Z,98880.31
2018-12-08T22:32:02.071Z,98881.04
2018-12-08T22:34:33.200Z,98882.98
2018-12-08T22:37:04.200Z,98887.20
2018-12-08T22:39:35.096Z,98886.89
2018-12-08T22:42:06.199Z,98890.47
2018-12-08T22:44:37.226Z,98893.95
2018-12-08T22:47:08.301Z,98902.39
2018-12-08T22:49:39.269Z,98911.67
2018-12-08T22:52:10.039Z,98902.58
2018-12-08T22:54:41.052Z,98910.36
2018-12-08T22:57:12.244Z,98910.24
2018-12-08T22:59:43.111Z,98906.02
2018-12-08T23:02:14.175Z,98910.15
2018-12-08T23:04:45.166Z,98913.19
2018-12-08T23:07:16.333Z,98905.68
2018-12-08T23:09:47.397Z,98898.05
2018-12-08T23:12:18.375Z,98894.23
2018-12-08T23:14:49.507Z,98902.08
2018-12-08T23:17:20.834Z,98900.58
2018-12-08T23:19:52.790Z,98896.47
2018-12-08T23:22:23.577Z,98884.66
2018-12-08T23:24:55.298Z,98878.02
2018-12-08T23:27:27.174Z,98875.22
2018-12-08T23:29:58.591Z,98866.27
2018-12-08T23:32:29.940Z,98877.59
2018-12-08T23:35:01.379Z,98870.12
2018-12-08T23:37:32.925Z,98866.36
2018-12-08T23:40:03.897Z,98860.06
2018-12-08T23:42:34.758Z,98864.88
2018-12-08T23:45:05.923Z,98868.45
2018-12-08T23:47:36.745Z,98863.36
2018-12-08T23:50:09.604Z,98865.80
2018-12-08T23:52:40.356Z,98869.78
2018-12-08T23:55:12.498Z,98860.54
2018-12-08T23:57:43.488Z,98859.11
